sensor_id;sensor_type;location;lat;lon;timestamp;temperature;humidity
46926;DHT22;32667;48.248;-1.700;2023-11-19T00:02:25;16.20;77.20
46926;DHT22;32667;48.248;-1.700;2023-11-19T00:04:51;16.20;77.20
46926;DHT22;32667;48.248;-1.700;2023-11-19T00:07:16;16.20;77.20
46926;DHT22;32667;48.248;-1.700;2023-11-19T00:09:44;16.20;77.10
46926;DHT22;32667;48.248;-1.700;2023-11-19T00:12:11;16.20;77.10
46926;DHT22;32667;48.248;-1.700;2023-11-19T00:14:38;16.10;77.20
46926;DHT22;32667;48.248;-1.700;2023-11-19T00:17:04;16.10;77.20
46926;DHT22;32667;48.248;-1.700;2023-11-19T00:19:30;16.10;77.20
46926;DHT22;32667;48.248;-1.700;2023-11-19T00:21:55;16.10;77.30
46926;DHT22;32667;48.248;-1.700;2023-11-19T00:24:21;16.10;77.30
46926;DHT22;32667;48.248;-1.700;2023-11-19T00:26:47;16.10;77.30
46926;DHT22;32667;48.248;-1.700;2023-11-19T00:29:12;16.00;77.30
46926;DHT22;32667;48.248;-1.700;2023-11-19T00:31:43;16.00;77.30
46926;DHT22;32667;48.248;-1.700;2023-11-19T00:34:11;16.00;77.40
46926;DHT22;32667;48.248;-1.700;2023-11-19T00:36:37;16.00;77.40
46926;DHT22;32667;48.248;-1.700;2023-11-19T00:39:03;16.00;77.50
46926;DHT22;32667;48.248;-1.700;2023-11-19T00:41:31;15.90;77.40
46926;DHT22;32667;48.248;-1.700;2023-11-19T00:43:59;15.90;77.50
46926;DHT22;32667;48.248;-1.700;2023-11-19T00:46:25;15.90;77.50
46926;DHT22;32667;48.248;-1.700;2023-11-19T00:48:50;15.90;77.60
46926;DHT22;32667;48.248;-1.700;2023-11-19T00:51:16;15.80;77.50
46926;DHT22;32667;48.248;-1.700;2023-11-19T00:53:42;15.80;77.60
46926;DHT22;32667;48.248;-1.700;2023-11-19T00:56:08;15.80;77.60
46926;DHT22;32667;48.248;-1.700;2023-11-19T00:58:34;15.80;77.70
46926;DHT22;32667;48.248;-1.700;2023-11-19T01:01:02;15.70;77.70
46926;DHT22;32667;48.248;-1.700;2023-11-19T01:03:30;15.70;77.80
46926;DHT22;32667;48.248;-1.700;2023-11-19T01:05:56;15.60;77.80
46926;DHT22;32667;48.248;-1.700;2023-11-19T01:08:26;15.60;77.90
46926;DHT22;32667;48.248;-1.700;2023-11-19T01:10:52;15.60;77.90
46926;DHT22;32667;48.248;-1.700;2023-11-19T01:13:18;15.60;77.90
46926;DHT22;32667;48.248;-1.700;2023-11-19T01:15:44;15.50;77.90
46926;DHT22;32667;48.248;-1.700;2023-11-19T01:18:13;15.50;78.00
46926;DHT22;32667;48.248;-1.700;2023-11-19T01:20:44;15.50;78.00
46926;DHT22;32667;48.248;-1.700;2023-11-19T01:23:10;15.40;78.00
46926;DHT22;32667;48.248;-1.700;2023-11-19T01:25:35;15.40;78.10
46926;DHT22;32667;48.248;-1.700;2023-11-19T01:28:02;15.40;78.20
46926;DHT22;32667;48.248;-1.700;2023-11-19T01:30:28;15.30;78.10
46926;DHT22;32667;48.248;-1.700;2023-11-19T01:32:54;15.30;78.10
46926;DHT22;32667;48.248;-1.700;2023-11-19T01:35:19;15.30;78.10
46926;DHT22;32667;48.248;-1.700;2023-11-19T01:37:47;15.30;78.10
46926;DHT22;32667;48.248;-1.700;2023-11-19T01:40:13;15.30;78.10
46926;DHT22;32667;48.248;-1.700;2023-11-19T01:42:42;15.30;78.10
46926;DHT22;32667;48.248;-1.700;2023-11-19T01:45:10;15.30;78.20
46926;DHT22;32667;48.248;-1.700;2023-11-19T01:47:44;15.30;78.20
46926;DHT22;32667;48.248;-1.700;2023-11-19T01:50:10;15.30;78.10
46926;DHT22;32667;48.248;-1.700;2023-11-19T01:52:37;15.20;78.10
46926;DHT22;32667;48.248;-1.700;2023-11-19T01:55:04;15.20;78.10
46926;DHT22;32667;48.248;-1.700;2023-11-19T01:57:30;15.20;78.10
46926;DHT22;32667;48.248;-1.700;2023-11-19T01:59:59;15.20;78.10
46926;DHT22;32667;48.248;-1.700;2023-11-19T02:02:27;15.10;78.10
46926;DHT22;32667;48.248;-1.700;2023-11-19T02:04:53;15.10;78.20
46926;DHT22;32667;48.248;-1.700;2023-11-19T02:07:19;15.00;78.20
46926;DHT22;32667;48.248;-1.700;2023-11-19T02:09:45;15.00;78.20
46926;DHT22;32667;48.248;-1.700;2023-11-19T02:12:13;15.00;78.30
46926;DHT22;32667;48.248;-1.700;2023-11-19T02:14:39;15.00;78.30
46926;DHT22;32667;48.248;-1.700;2023-11-19T02:17:05;14.90;78.30
46926;DHT22;32667;48.248;-1.700;2023-11-19T02:19:31;14.90;78.30
46926;DHT22;32667;48.248;-1.700;2023-11-19T02:21:59;14.90;78.40
46926;DHT22;32667;48.248;-1.700;2023-11-19T02:24:27;14.80;78.40
46926;DHT22;32667;48.248;-1.700;2023-11-19T02:27:02;14.80;78.40
46926;DHT22;32667;48.248;-1.700;2023-11-19T02:29:31;14.80;78.50
46926;DHT22;32667;48.248;-1.700;2023-11-19T02:32:04;14.70;78.50
46926;DHT22;32667;48.248;-1.700;2023-11-19T02:34:30;14.70;78.50
46926;DHT22;32667;48.248;-1.700;2023-11-19T02:36:56;14.60;78.40
46926;DHT22;32667;48.248;-1.700;2023-11-19T02:39:22;14.60;78.50
46926;DHT22;32667;48.248;-1.700;2023-11-19T02:41:48;14.60;78.50
46926;DHT22;32667;48.248;-1.700;2023-11-19T02:44:18;14.60;78.50
46926;DHT22;32667;48.248;-1.700;2023-11-19T02:46:44;14.50;78.50
46926;DHT22;32667;48.248;-1.700;2023-11-19T02:49:10;14.50;78.60
46926;DHT22;32667;48.248;-1.700;2023-11-19T02:51:35;14.50;78.60
46926;DHT22;32667;48.248;-1.700;2023-11-19T02:54:02;14.50;78.60
46926;DHT22;32667;48.248;-1.700;2023-11-19T02:56:29;14.40;78.60
46926;DHT22;32667;48.248;-1.700;2023-11-19T02:59:00;14.40;78.60
46926;DHT22;32667;48.248;-1.700;2023-11-19T03:01:33;14.40;78.70
46926;DHT22;32667;48.248;-1.700;2023-11-19T03:04:01;14.30;78.70
46926;DHT22;32667;48.248;-1.700;2023-11-19T03:06:27;14.40;78.80
46926;DHT22;32667;48.248;-1.700;2023-11-19T03:08:54;14.30;78.70
46926;DHT22;32667;48.248;-1.700;2023-11-19T03:11:25;14.30;78.80
46926;DHT22;32667;48.248;-1.700;2023-11-19T03:13:53;14.30;78.80
46926;DHT22;32667;48.248;-1.700;2023-11-19T03:16:28;14.20;78.70
46926;DHT22;32667;48.248;-1.700;2023-11-19T03:18:54;14.20;78.70
46926;DHT22;32667;48.248;-1.700;2023-11-19T03:21:28;14.20;78.80
46926;DHT22;32667;48.248;-1.700;2023-11-19T03:23:53;14.20;78.80
46926;DHT22;32667;48.248;-1.700;2023-11-19T03:26:19;14.20;78.80
46926;DHT22;32667;48.248;-1.700;2023-11-19T03:28:47;14.10;78.80
46926;DHT22;32667;48.248;-1.700;2023-11-19T03:31:13;14.10;78.80
46926;DHT22;32667;48.248;-1.700;2023-11-19T03:33:39;14.10;78.80
46926;DHT22;32667;48.248;-1.700;2023-11-19T03:36:07;14.10;78.80
46926;DHT22;32667;48.248;-1.700;2023-11-19T03:38:34;14.00;78.80
46926;DHT22;32667;48.248;-1.700;2023-11-19T03:41:00;14.00;78.90
46926;DHT22;32667;48.248;-1.700;2023-11-19T03:43:26;14.00;78.90
46926;DHT22;32667;48.248;-1.700;2023-11-19T03:45:52;14.00;78.90
46926;DHT22;32667;48.248;-1.700;2023-11-19T03:48:18;13.90;78.90
46926;DHT22;32667;48.248;-1.700;2023-11-19T03:50:44;13.90;79.00
46926;DHT22;32667;48.248;-1.700;2023-11-19T03:53:11;13.90;79.00
46926;DHT22;32667;48.248;-1.700;2023-11-19T03:55:37;13.90;79.00
46926;DHT22;32667;48.248;-1.700;2023-11-19T03:58:02;13.80;79.00
46926;DHT22;32667;48.248;-1.700;2023-11-19T04:00:35;13.80;79.00
46926;DHT22;32667;48.248;-1.700;2023-11-19T04:03:01;13.80;79.00
46926;DHT22;32667;48.248;-1.700;2023-11-19T04:05:31;13.80;79.00
46926;DHT22;32667;48.248;-1.700;2023-11-19T04:07:57;13.70;79.00
46926;DHT22;32667;48.248;-1.700;2023-11-19T04:10:23;13.70;79.00
46926;DHT22;32667;48.248;-1.700;2023-11-19T04:12:52;13.70;79.00
46926;DHT22;32667;48.248;-1.700;2023-11-19T04:15:21;13.70;79.00
46926;DHT22;32667;48.248;-1.700;2023-11-19T04:17:49;13.70;79.10
46926;DHT22;32667;48.248;-1.700;2023-11-19T04:20:15;13.70;79.10
46926;DHT22;32667;48.248;-1.700;2023-11-19T04:22:43;13.60;79.10
46926;DHT22;32667;48.248;-1.700;2023-11-19T04:25:09;13.70;79.10
46926;DHT22;32667;48.248;-1.700;2023-11-19T04:27:35;13.60;79.10
46926;DHT22;32667;48.248;-1.700;2023-11-19T04:30:00;13.60;79.10
46926;DHT22;32667;48.248;-1.700;2023-11-19T04:32:28;13.70;79.10
46926;DHT22;32667;48.248;-1.700;2023-11-19T04:34:57;13.70;79.00
46926;DHT22;32667;48.248;-1.700;2023-11-19T04:37:25;13.70;78.90
46926;DHT22;32667;48.248;-1.700;2023-11-19T04:39:50;13.70;78.90
46926;DHT22;32667;48.248;-1.700;2023-11-19T04:42:21;13.70;79.00
46926;DHT22;32667;48.248;-1.700;2023-11-19T04:44:47;13.70;79.00
46926;DHT22;32667;48.248;-1.700;2023-11-19T04:47:13;13.70;79.00
46926;DHT22;32667;48.248;-1.700;2023-11-19T04:49:42;13.70;79.00
46926;DHT22;32667;48.248;-1.700;2023-11-19T04:52:18;13.60;79.00
46926;DHT22;32667;48.248;-1.700;2023-11-19T04:54:44;13.60;79.00
46926;DHT22;32667;48.248;-1.700;2023-11-19T04:57:10;13.60;79.10
46926;DHT22;32667;48.248;-1.700;2023-11-19T04:59:41;13.60;79.20
46926;DHT22;32667;48.248;-1.700;2023-11-19T05:02:08;13.60;79.20
46926;DHT22;32667;48.248;-1.700;2023-11-19T05:04:36;13.50;79.20
46926;DHT22;32667;48.248;-1.700;2023-11-19T05:07:05;13.50;79.20
46926;DHT22;32667;48.248;-1.700;2023-11-19T05:09:31;13.50;79.20
46926;DHT22;32667;48.248;-1.700;2023-11-19T05:11:59;13.60;79.20
46926;DHT22;32667;48.248;-1.700;2023-11-19T05:14:25;13.50;79.20
46926;DHT22;32667;48.248;-1.700;2023-11-19T05:16:51;13.50;79.20
46926;DHT22;32667;48.248;-1.700;2023-11-19T05:19:16;13.50;79.20
46926;DHT22;32667;48.248;-1.700;2023-11-19T05:21:43;13.50;79.10
46926;DHT22;32667;48.248;-1.700;2023-11-19T05:24:09;13.50;79.20
46926;DHT22;32667;48.248;-1.700;2023-11-19T05:26:34;13.50;79.20
46926;DHT22;32667;48.248;-1.700;2023-11-19T05:29:00;13.40;79.20
46926;DHT22;32667;48.248;-1.700;2023-11-19T05:31:28;13.50;79.20
46926;DHT22;32667;48.248;-1.700;2023-11-19T05:33:54;13.40;79.20
46926;DHT22;32667;48.248;-1.700;2023-11-19T05:36:19;13.40;79.20
46926;DHT22;32667;48.248;-1.700;2023-11-19T05:38:47;13.40;79.20
46926;DHT22;32667;48.248;-1.700;2023-11-19T05:41:13;13.30;79.20
46926;DHT22;32667;48.248;-1.700;2023-11-19T05:43:42;13.40;79.30
46926;DHT22;32667;48.248;-1.700;2023-11-19T05:46:15;13.40;79.30
46926;DHT22;32667;48.248;-1.700;2023-11-19T05:48:42;13.40;79.30
46926;DHT22;32667;48.248;-1.700;2023-11-19T05:51:17;13.30;79.20
46926;DHT22;32667;48.248;-1.700;2023-11-19T05:53:44;13.30;79.20
46926;DHT22;32667;48.248;-1.700;2023-11-19T05:56:11;13.30;79.20
46926;DHT22;32667;48.248;-1.700;2023-11-19T05:58:37;13.30;79.20
46926;DHT22;32667;48.248;-1.700;2023-11-19T06:01:09;13.40;79.20
46926;DHT22;32667;48.248;-1.700;2023-11-19T06:03:46;13.40;79.10
46926;DHT22;32667;48.248;-1.700;2023-11-19T06:06:15;13.40;79.00
46926;DHT22;32667;48.248;-1.700;2023-11-19T06:08:43;13.40;79.00
46926;DHT22;32667;48.248;-1.700;2023-11-19T06:11:10;13.40;78.90
46926;DHT22;32667;48.248;-1.700;2023-11-19T06:13:44;13.40;78.80
46926;DHT22;32667;48.248;-1.700;2023-11-19T06:16:10;13.40;78.90
46926;DHT22;32667;48.248;-1.700;2023-11-19T06:18:38;13.40;78.80
46926;DHT22;32667;48.248;-1.700;2023-11-19T06:21:04;13.40;78.80
46926;DHT22;32667;48.248;-1.700;2023-11-19T06:23:30;13.40;78.80
46926;DHT22;32667;48.248;-1.700;2023-11-19T06:25:58;13.50;78.80
46926;DHT22;32667;48.248;-1.700;2023-11-19T06:28:28;13.40;78.70
46926;DHT22;32667;48.248;-1.700;2023-11-19T06:30:54;13.40;78.80
46926;DHT22;32667;48.248;-1.700;2023-11-19T06:33:20;13.40;78.80
46926;DHT22;32667;48.248;-1.700;2023-11-19T06:35:46;13.40;78.80
46926;DHT22;32667;48.248;-1.700;2023-11-19T06:38:14;13.40;78.80
46926;DHT22;32667;48.248;-1.700;2023-11-19T06:40:40;13.40;78.80
46926;DHT22;32667;48.248;-1.700;2023-11-19T06:43:08;13.40;78.80
46926;DHT22;32667;48.248;-1.700;2023-11-19T06:45:37;13.40;78.80
46926;DHT22;32667;48.248;-1.700;2023-11-19T06:48:10;13.40;78.80
46926;DHT22;32667;48.248;-1.700;2023-11-19T06:50:36;13.30;78.90
46926;DHT22;32667;48.248;-1.700;2023-11-19T06:53:02;13.30;78.90
46926;DHT22;32667;48.248;-1.700;2023-11-19T06:55:27;13.20;78.90
46926;DHT22;32667;48.248;-1.700;2023-11-19T06:57:53;13.20;79.00
46926;DHT22;32667;48.248;-1.700;2023-11-19T07:00:19;13.20;79.10
46926;DHT22;32667;48.248;-1.700;2023-11-19T07:02:47;13.10;79.10
46926;DHT22;32667;48.248;-1.700;2023-11-19T07:05:35;13.10;79.20
46926;DHT22;32667;48.248;-1.700;2023-11-19T07:08:01;13.00;79.10
46926;DHT22;32667;48.248;-1.700;2023-11-19T07:10:29;13.00;79.20
46926;DHT22;32667;48.248;-1.700;2023-11-19T07:12:56;13.00;79.20
46926;DHT22;32667;48.248;-1.700;2023-11-19T07:15:24;12.90;79.20
46926;DHT22;32667;48.248;-1.700;2023-11-19T07:17:52;12.90;79.90
46926;DHT22;32667;48.248;-1.700;2023-11-19T07:20:20;12.90;79.30
46926;DHT22;32667;48.248;-1.700;2023-11-19T07:22:48;12.90;79.30
46926;DHT22;32667;48.248;-1.700;2023-11-19T07:25:14;12.90;79.20
46926;DHT22;32667;48.248;-1.700;2023-11-19T07:27:40;12.90;79.20
46926;DHT22;32667;48.248;-1.700;2023-11-19T07:30:06;12.90;79.20
46926;DHT22;32667;48.248;-1.700;2023-11-19T07:32:37;12.90;79.20
46926;DHT22;32667;48.248;-1.700;2023-11-19T07:35:06;12.80;79.20
46926;DHT22;32667;48.248;-1.700;2023-11-19T07:37:34;12.80;79.30
46926;DHT22;32667;48.248;-1.700;2023-11-19T07:40:00;12.90;79.30
46926;DHT22;32667;48.248;-1.700;2023-11-19T07:42:29;12.80;79.30
46926;DHT22;32667;48.248;-1.700;2023-11-19T07:44:56;12.80;79.20
46926;DHT22;32667;48.248;-1.700;2023-11-19T07:47:22;12.80;79.20
46926;DHT22;32667;48.248;-1.700;2023-11-19T07:49:50;12.80;79.20
46926;DHT22;32667;48.248;-1.700;2023-11-19T07:52:17;12.80;79.20
46926;DHT22;32667;48.248;-1.700;2023-11-19T07:54:43;12.80;79.20
46926;DHT22;32667;48.248;-1.700;2023-11-19T07:57:09;12.90;79.20
46926;DHT22;32667;48.248;-1.700;2023-11-19T07:59:35;12.90;79.10
46926;DHT22;32667;48.248;-1.700;2023-11-19T08:02:01;12.90;79.10
46926;DHT22;32667;48.248;-1.700;2023-11-19T08:04:27;12.90;79.00
46926;DHT22;32667;48.248;-1.700;2023-11-19T08:06:55;12.90;79.00
46926;DHT22;32667;48.248;-1.700;2023-11-19T08:09:23;13.00;79.00
46926;DHT22;32667;48.248;-1.700;2023-11-19T08:11:49;12.90;79.00
46926;DHT22;32667;48.248;-1.700;2023-11-19T08:14:17;13.00;79.00
46926;DHT22;32667;48.248;-1.700;2023-11-19T08:16:45;13.00;78.90
46926;DHT22;32667;48.248;-1.700;2023-11-19T08:19:11;13.00;78.80
46926;DHT22;32667;48.248;-1.700;2023-11-19T08:21:37;13.00;78.80
46926;DHT22;32667;48.248;-1.700;2023-11-19T08:24:03;13.10;79.40
46926;DHT22;32667;48.248;-1.700;2023-11-19T08:26:31;13.10;78.80
46926;DHT22;32667;48.248;-1.700;2023-11-19T08:28:57;13.10;78.70
46926;DHT22;32667;48.248;-1.700;2023-11-19T08:31:24;13.10;78.70
46926;DHT22;32667;48.248;-1.700;2023-11-19T08:33:50;13.10;78.70
46926;DHT22;32667;48.248;-1.700;2023-11-19T08:36:18;13.10;78.70
46926;DHT22;32667;48.248;-1.700;2023-11-19T08:38:46;13.10;78.60
46926;DHT22;32667;48.248;-1.700;2023-11-19T08:41:13;13.10;78.60
46926;DHT22;32667;48.248;-1.700;2023-11-19T08:43:39;13.10;78.70
46926;DHT22;32667;48.248;-1.700;2023-11-19T08:46:12;13.10;78.60
46926;DHT22;32667;48.248;-1.700;2023-11-19T08:48:41;13.20;78.60
46926;DHT22;32667;48.248;-1.700;2023-11-19T08:51:07;13.20;78.40
46926;DHT22;32667;48.248;-1.700;2023-11-19T08:53:33;13.30;78.40
46926;DHT22;32667;48.248;-1.700;2023-11-19T08:55:59;13.30;78.30
46926;DHT22;32667;48.248;-1.700;2023-11-19T08:58:26;13.30;78.30
46926;DHT22;32667;48.248;-1.700;2023-11-19T09:00:51;13.30;78.20
46926;DHT22;32667;48.248;-1.700;2023-11-19T09:03:17;13.40;78.20
46926;DHT22;32667;48.248;-1.700;2023-11-19T09:05:45;13.40;78.00
46926;DHT22;32667;48.248;-1.700;2023-11-19T09:08:11;13.50;78.00
46926;DHT22;32667;48.248;-1.700;2023-11-19T09:10:40;13.50;78.00
46926;DHT22;32667;48.248;-1.700;2023-11-19T09:13:05;13.60;78.00
46926;DHT22;32667;48.248;-1.700;2023-11-19T09:15:31;13.60;77.80
46926;DHT22;32667;48.248;-1.700;2023-11-19T09:17:57;13.60;77.80
46926;DHT22;32667;48.248;-1.700;2023-11-19T09:20:22;13.70;77.80
46926;DHT22;32667;48.248;-1.700;2023-11-19T09:22:48;13.80;77.70
46926;DHT22;32667;48.248;-1.700;2023-11-19T09:25:14;13.80;77.60
46926;DHT22;32667;48.248;-1.700;2023-11-19T09:27:45;13.90;77.50
46926;DHT22;32667;48.248;-1.700;2023-11-19T09:30:11;14.00;77.30
46926;DHT22;32667;48.248;-1.700;2023-11-19T09:32:38;14.10;77.20
46926;DHT22;32667;48.248;-1.700;2023-11-19T09:35:04;14.10;77.20
46926;DHT22;32667;48.248;-1.700;2023-11-19T09:37:32;14.10;77.10
46926;DHT22;32667;48.248;-1.700;2023-11-19T09:39:58;14.20;77.20
46926;DHT22;32667;48.248;-1.700;2023-11-19T09:42:24;14.20;77.20
46926;DHT22;32667;48.248;-1.700;2023-11-19T09:44:49;14.30;77.10
46926;DHT22;32667;48.248;-1.700;2023-11-19T09:47:19;14.30;77.20
46926;DHT22;32667;48.248;-1.700;2023-11-19T09:49:46;14.30;77.10
46926;DHT22;32667;48.248;-1.700;2023-11-19T09:52:13;14.30;77.10
46926;DHT22;32667;48.248;-1.700;2023-11-19T09:54:41;14.30;77.10
46926;DHT22;32667;48.248;-1.700;2023-11-19T09:57:07;14.40;77.20
46926;DHT22;32667;48.248;-1.700;2023-11-19T09:59:37;14.40;77.20
46926;DHT22;32667;48.248;-1.700;2023-11-19T10:02:03;14.40;77.10
46926;DHT22;32667;48.248;-1.700;2023-11-19T10:04:30;14.40;77.10
46926;DHT22;32667;48.248;-1.700;2023-11-19T10:07:01;14.40;77.20
46926;DHT22;32667;48.248;-1.700;2023-11-19T10:09:28;14.40;77.20
46926;DHT22;32667;48.248;-1.700;2023-11-19T10:12:01;14.40;77.20
46926;DHT22;32667;48.248;-1.700;2023-11-19T10:14:30;14.40;77.20
46926;DHT22;32667;48.248;-1.700;2023-11-19T10:16:56;14.40;77.20
46926;DHT22;32667;48.248;-1.700;2023-11-19T10:19:22;14.40;77.10
46926;DHT22;32667;48.248;-1.700;2023-11-19T10:21:49;14.50;77.20
46926;DHT22;32667;48.248;-1.700;2023-11-19T10:24:31;14.50;77.10
46926;DHT22;32667;48.248;-1.700;2023-11-19T10:26:58;14.60;77.10
46926;DHT22;32667;48.248;-1.700;2023-11-19T10:29:24;14.60;77.00
46926;DHT22;32667;48.248;-1.700;2023-11-19T10:31:57;14.80;76.90
46926;DHT22;32667;48.248;-1.700;2023-11-19T10:34:29;14.70;76.80
46926;DHT22;32667;48.248;-1.700;2023-11-19T10:36:55;14.80;76.70
46926;DHT22;32667;48.248;-1.700;2023-11-19T10:39:21;14.90;76.60
46926;DHT22;32667;48.248;-1.700;2023-11-19T10:41:57;14.90;76.60
46926;DHT22;32667;48.248;-1.700;2023-11-19T10:44:32;15.00;76.50
46926;DHT22;32667;48.248;-1.700;2023-11-19T10:46:59;15.00;76.50
46926;DHT22;32667;48.248;-1.700;2023-11-19T10:49:25;15.10;76.50
46926;DHT22;32667;48.248;-1.700;2023-11-19T10:51:51;15.10;76.40
46926;DHT22;32667;48.248;-1.700;2023-11-19T10:54:22;15.20;76.40
46926;DHT22;32667;48.248;-1.700;2023-11-19T10:57:01;15.20;76.40
46926;DHT22;32667;48.248;-1.700;2023-11-19T10:59:33;15.30;76.30
46926;DHT22;32667;48.248;-1.700;2023-11-19T11:02:03;15.30;76.20
46926;DHT22;32667;48.248;-1.700;2023-11-19T11:04:33;15.40;76.20
46926;DHT22;32667;48.248;-1.700;2023-11-19T11:07:03;15.40;76.20
46926;DHT22;32667;48.248;-1.700;2023-11-19T11:09:30;15.30;76.20
46926;DHT22;32667;48.248;-1.700;2023-11-19T11:11:57;15.30;76.30
46926;DHT22;32667;48.248;-1.700;2023-11-19T11:14:27;15.30;76.30
46926;DHT22;32667;48.248;-1.700;2023-11-19T11:16:53;15.40;76.30
46926;DHT22;32667;48.248;-1.700;2023-11-19T11:19:22;15.40;76.30
46926;DHT22;32667;48.248;-1.700;2023-11-19T11:21:53;15.40;76.20
46926;DHT22;32667;48.248;-1.700;2023-11-19T11:33:17;15.50;76.20
46926;DHT22;32667;48.248;-1.700;2023-11-19T11:38:24;15.50;76.10
46926;DHT22;32667;48.248;-1.700;2023-11-19T11:41:19;15.50;76.10
46926;DHT22;32667;48.248;-1.700;2023-11-19T11:43:49;15.60;75.90
46926;DHT22;32667;48.248;-1.700;2023-11-19T11:49:06;15.80;75.80
46926;DHT22;32667;48.248;-1.700;2023-11-19T11:54:11;15.90;75.60
46926;DHT22;32667;48.248;-1.700;2023-11-19T11:56:37;16.00;75.60
46926;DHT22;32667;48.248;-1.700;2023-11-19T11:59:21;16.00;75.40
46926;DHT22;32667;48.248;-1.700;2023-11-19T12:02:21;16.00;75.40
46926;DHT22;32667;48.248;-1.700;2023-11-19T12:04:51;16.00;75.40
46926;DHT22;32667;48.248;-1.700;2023-11-19T12:07:24;16.10;75.40
46926;DHT22;32667;48.248;-1.700;2023-11-19T12:10:08;16.10;75.50
46926;DHT22;32667;48.248;-1.700;2023-11-19T12:12:39;16.00;75.60
46926;DHT22;32667;48.248;-1.700;2023-11-19T12:15:08;16.10;75.70
46926;DHT22;32667;48.248;-1.700;2023-11-19T12:20:15;16.20;75.50
46926;DHT22;32667;48.248;-1.700;2023-11-19T12:22:44;16.30;75.40
46926;DHT22;32667;48.248;-1.700;2023-11-19T12:25:11;16.40;75.30
46926;DHT22;32667;48.248;-1.700;2023-11-19T12:27:43;16.40;75.20
46926;DHT22;32667;48.248;-1.700;2023-11-19T12:30:09;16.50;75.10
46926;DHT22;32667;48.248;-1.700;2023-11-19T12:32:44;16.50;75.00
46926;DHT22;32667;48.248;-1.700;2023-11-19T12:35:10;16.60;75.10
46926;DHT22;32667;48.248;-1.700;2023-11-19T12:37:43;16.60;75.10
46926;DHT22;32667;48.248;-1.700;2023-11-19T12:40:14;16.60;75.20
46926;DHT22;32667;48.248;-1.700;2023-11-19T12:42:41;16.60;75.20
46926;DHT22;32667;48.248;-1.700;2023-11-19T12:45:07;16.60;75.20
46926;DHT22;32667;48.248;-1.700;2023-11-19T12:47:37;16.70;75.20
46926;DHT22;32667;48.248;-1.700;2023-11-19T12:50:03;16.80;75.10
46926;DHT22;32667;48.248;-1.700;2023-11-19T12:52:30;16.90;75.10
46926;DHT22;32667;48.248;-1.700;2023-11-19T12:54:56;16.90;75.00
46926;DHT22;32667;48.248;-1.700;2023-11-19T12:57:39;17.00;74.80
46926;DHT22;32667;48.248;-1.700;2023-11-19T13:00:18;17.10;74.80
46926;DHT22;32667;48.248;-1.700;2023-11-19T13:02:54;17.10;74.60
46926;DHT22;32667;48.248;-1.700;2023-11-19T13:05:32;17.10;74.60
46926;DHT22;32667;48.248;-1.700;2023-11-19T13:08:06;17.20;74.70
46926;DHT22;32667;48.248;-1.700;2023-11-19T13:13:14;17.20;74.70
46926;DHT22;32667;48.248;-1.700;2023-11-19T13:15:39;17.30;74.80
46926;DHT22;32667;48.248;-1.700;2023-11-19T13:18:10;17.30;74.70
46926;DHT22;32667;48.248;-1.700;2023-11-19T13:20:36;17.40;74.60
46926;DHT22;32667;48.248;-1.700;2023-11-19T13:23:04;17.40;74.60
46926;DHT22;32667;48.248;-1.700;2023-11-19T13:25:30;17.30;74.70
46926;DHT22;32667;48.248;-1.700;2023-11-19T13:27:59;17.10;74.90
46926;DHT22;32667;48.248;-1.700;2023-11-19T13:30:26;17.00;75.20
46926;DHT22;32667;48.248;-1.700;2023-11-19T13:32:52;17.00;75.40
46926;DHT22;32667;48.248;-1.700;2023-11-19T13:35:20;16.80;75.60
46926;DHT22;32667;48.248;-1.700;2023-11-19T13:37:48;16.80;75.80
46926;DHT22;32667;48.248;-1.700;2023-11-19T13:40:14;16.70;75.80
46926;DHT22;32667;48.248;-1.700;2023-11-19T13:42:43;16.70;75.80
46926;DHT22;32667;48.248;-1.700;2023-11-19T13:45:18;16.80;75.80
46926;DHT22;32667;48.248;-1.700;2023-11-19T13:47:46;16.80;75.80
46926;DHT22;32667;48.248;-1.700;2023-11-19T13:50:15;16.90;75.60
46926;DHT22;32667;48.248;-1.700;2023-11-19T13:52:43;17.00;75.40
46926;DHT22;32667;48.248;-1.700;2023-11-19T13:55:12;17.00;75.40
46926;DHT22;32667;48.248;-1.700;2023-11-19T13:57:39;17.00;75.40
46926;DHT22;32667;48.248;-1.700;2023-11-19T14:00:09;16.90;75.40
46926;DHT22;32667;48.248;-1.700;2023-11-19T14:02:42;16.90;75.50
46926;DHT22;32667;48.248;-1.700;2023-11-19T14:05:10;16.90;75.50
46926;DHT22;32667;48.248;-1.700;2023-11-19T14:07:37;16.80;75.50
46926;DHT22;32667;48.248;-1.700;2023-11-19T14:10:03;16.70;75.60
46926;DHT22;32667;48.248;-1.700;2023-11-19T14:12:30;16.80;75.80
46926;DHT22;32667;48.248;-1.700;2023-11-19T14:15:00;16.80;75.80
46926;DHT22;32667;48.248;-1.700;2023-11-19T14:17:28;16.90;75.60
46926;DHT22;32667;48.248;-1.700;2023-11-19T14:19:54;17.00;75.40
46926;DHT22;32667;48.248;-1.700;2023-11-19T14:22:27;16.90;75.30
46926;DHT22;32667;48.248;-1.700;2023-11-19T14:24:55;16.80;75.50
46926;DHT22;32667;48.248;-1.700;2023-11-19T14:27:21;16.60;75.70
46926;DHT22;32667;48.248;-1.700;2023-11-19T14:29:47;16.50;76.00
46926;DHT22;32667;48.248;-1.700;2023-11-19T14:32:13;16.40;76.20
46926;DHT22;32667;48.248;-1.700;2023-11-19T14:34:41;16.30;76.30
46926;DHT22;32667;48.248;-1.700;2023-11-19T14:37:10;16.30;76.50
46926;DHT22;32667;48.248;-1.700;2023-11-19T14:39:38;16.30;76.50
46926;DHT22;32667;48.248;-1.700;2023-11-19T14:42:03;16.30;76.50
46926;DHT22;32667;48.248;-1.700;2023-11-19T14:44:30;16.30;76.40
46926;DHT22;32667;48.248;-1.700;2023-11-19T14:46:56;16.30;76.30
46926;DHT22;32667;48.248;-1.700;2023-11-19T14:49:22;16.40;76.20
46926;DHT22;32667;48.248;-1.700;2023-11-19T14:51:51;16.40;76.10
46926;DHT22;32667;48.248;-1.700;2023-11-19T14:54:22;16.40;76.00
46926;DHT22;32667;48.248;-1.700;2023-11-19T14:56:47;16.40;76.00
46926;DHT22;32667;48.248;-1.700;2023-11-19T14:59:13;16.40;76.00
46926;DHT22;32667;48.248;-1.700;2023-11-19T15:01:39;16.40;76.00
46926;DHT22;32667;48.248;-1.700;2023-11-19T15:04:05;16.30;76.00
46926;DHT22;32667;48.248;-1.700;2023-11-19T15:06:31;16.30;76.10
46926;DHT22;32667;48.248;-1.700;2023-11-19T15:08:59;16.20;76.10
46926;DHT22;32667;48.248;-1.700;2023-11-19T15:11:24;16.20;76.20
46926;DHT22;32667;48.248;-1.700;2023-11-19T15:13:50;16.10;76.30
46926;DHT22;32667;48.248;-1.700;2023-11-19T15:16:16;16.10;76.40
46926;DHT22;32667;48.248;-1.700;2023-11-19T15:18:48;16.10;76.50
46926;DHT22;32667;48.248;-1.700;2023-11-19T15:21:14;16.10;76.60
46926;DHT22;32667;48.248;-1.700;2023-11-19T15:23:40;16.00;76.50
46926;DHT22;32667;48.248;-1.700;2023-11-19T15:26:06;16.00;76.60
46926;DHT22;32667;48.248;-1.700;2023-11-19T15:28:33;16.00;76.70
46926;DHT22;32667;48.248;-1.700;2023-11-19T15:31:04;15.90;76.60
46926;DHT22;32667;48.248;-1.700;2023-11-19T15:33:35;15.90;76.70
46926;DHT22;32667;48.248;-1.700;2023-11-19T15:36:00;15.80;76.70
46926;DHT22;32667;48.248;-1.700;2023-11-19T15:38:30;15.80;76.80
46926;DHT22;32667;48.248;-1.700;2023-11-19T15:40:56;15.80;76.80
46926;DHT22;32667;48.248;-1.700;2023-11-19T15:43:25;15.70;76.80